createdAt,value
2023-01-30T00:01:12.603Z,4.90
2023-01-30T00:03:39.788Z,4.80
2023-01-30T00:06:07.162Z,4.80
2023-01-30T00:08:34.377Z,4.70
2023-01-30T00:11:10.472Z,4.70
2023-01-30T00:13:38.493Z,4.70
2023-01-30T00:16:06.285Z,4.60
2023-01-30T00:18:33.612Z,4.60
2023-01-30T00:21:03.168Z,4.50
2023-01-30T00:23:31.674Z,4.60
2023-01-30T00:25:59.165Z,4.60
2023-01-30T00:28:26.518Z,4.60
2023-01-30T00:30:55.263Z,4.60
2023-01-30T00:33:25.173Z,4.60
2023-01-30T00:35:54.125Z,4.60
2023-01-30T00:38:22.149Z,4.60
2023-01-30T00:40:49.896Z,4.60
2023-01-30T00:43:37.840Z,4.60
2023-01-30T00:46:30.235Z,4.60
2023-01-30T00:48:57.428Z,4.60
2023-01-30T00:51:24.697Z,4.60
2023-01-30T00:53:51.888Z,4.60
2023-01-30T00:56:19.410Z,4.60
2023-01-30T00:58:46.570Z,4.50
2023-01-30T01:01:13.737Z,4.50
2023-01-30T01:03:40.915Z,4.60
2023-01-30T01:06:08.097Z,4.60
2023-01-30T01:08:35.319Z,4.60
2023-01-30T01:11:02.757Z,4.70
2023-01-30T01:13:29.998Z,4.70
2023-01-30T01:15:57.197Z,4.70
2023-01-30T01:18:24.604Z,4.70
2023-01-30T01:20:51.928Z,4.70
2023-01-30T01:23:19.075Z,4.80
2023-01-30T01:25:46.237Z,4.80
2023-01-30T01:28:13.443Z,4.80
2023-01-30T01:30:40.622Z,4.80
2023-01-30T01:33:07.797Z,4.80
2023-01-30T01:35:34.949Z,4.80
2023-01-30T01:38:02.202Z,4.80
2023-01-30T01:40:48.265Z,4.90
2023-01-30T01:43:20.550Z,4.90
2023-01-30T01:45:52.062Z,5.00
2023-01-30T01:48:53.473Z,5.00
2023-01-30T01:51:34.313Z,5.00
2023-01-30T01:54:09.711Z,5.00
2023-01-30T01:56:42.946Z,5.00
2023-01-30T01:59:19.220Z,5.00
2023-01-30T02:01:47.497Z,5.10
2023-01-30T02:04:35.001Z,5.10
2023-01-30T02:07:02.697Z,5.00
2023-01-30T02:09:29.939Z,4.90
2023-01-30T02:12:01.042Z,5.00
2023-01-30T02:14:28.953Z,4.90
2023-01-30T02:16:56.131Z,4.90
2023-01-30T02:19:44.381Z,4.80
2023-01-30T02:22:36.129Z,4.80
2023-01-30T02:25:27.607Z,4.80
2023-01-30T02:28:13.569Z,4.80
2023-01-30T02:30:52.877Z,4.70
2023-01-30T02:33:33.705Z,4.70
2023-01-30T02:36:08.492Z,4.70
2023-01-30T02:38:59.739Z,4.70
2023-01-30T02:42:09.750Z,4.70
2023-01-30T02:44:45.118Z,4.70
2023-01-30T02:47:19.263Z,4.70
2023-01-30T02:49:57.203Z,4.70
2023-01-30T02:52:25.122Z,4.70
2023-01-30T02:54:52.281Z,4.80
2023-01-30T02:57:24.978Z,4.70
2023-01-30T02:59:57.140Z,4.70
2023-01-30T03:03:07.251Z,4.60
2023-01-30T03:05:37.115Z,4.60
2023-01-30T03:08:14.036Z,4.60
2023-01-30T03:11:04.739Z,4.60
2023-01-30T03:13:48.213Z,4.60
2023-01-30T03:16:39.933Z,4.60
2023-01-30T03:19:12.367Z,4.50
2023-01-30T03:21:44.903Z,4.50
2023-01-30T03:24:13.686Z,4.50
2023-01-30T03:27:00.638Z,4.40
2023-01-30T03:29:27.849Z,4.50
2023-01-30T03:31:55.256Z,4.50
2023-01-30T03:34:22.575Z,4.50
2023-01-30T03:36:49.950Z,4.40
2023-01-30T03:39:17.278Z,4.40
2023-01-30T03:41:44.732Z,4.30
2023-01-30T03:44:11.955Z,4.30
2023-01-30T03:46:39.093Z,4.10
2023-01-30T03:49:06.232Z,4.00
2023-01-30T03:51:33.472Z,3.90
2023-01-30T03:54:00.735Z,3.90
2023-01-30T03:56:28.239Z,3.90
2023-01-30T03:58:55.492Z,3.70
2023-01-30T04:01:22.878Z,3.70
2023-01-30T04:03:50.118Z,3.70
2023-01-30T04:06:17.266Z,3.60
2023-01-30T04:08:44.407Z,3.60
2023-01-30T04:11:11.578Z,3.60
2023-01-30T04:13:38.789Z,3.60
2023-01-30T04:16:20.838Z,3.50
2023-01-30T04:18:48.352Z,3.50
2023-01-30T04:21:16.062Z,3.40
2023-01-30T04:23:43.528Z,3.40
2023-01-30T04:26:11.102Z,3.40
2023-01-30T04:28:38.527Z,3.40
2023-01-30T04:31:06.741Z,3.30
2023-01-30T04:33:37.138Z,3.30
2023-01-30T04:36:05.114Z,3.30
2023-01-30T04:38:33.719Z,3.30
2023-01-30T04:41:03.593Z,3.30
2023-01-30T04:43:31.220Z,3.20
2023-01-30T04:45:58.537Z,3.20
2023-01-30T04:48:26.909Z,3.10
2023-01-30T04:50:55.891Z,3.10
2023-01-30T04:53:24.540Z,3.00
2023-01-30T04:55:52.238Z,3.00
2023-01-30T04:58:19.711Z,3.00
2023-01-30T05:00:47.368Z,3.00
2023-01-30T05:03:15.930Z,3.00
2023-01-30T05:05:45.974Z,2.90
2023-01-30T05:08:13.209Z,2.80
2023-01-30T05:10:40.450Z,2.80
2023-01-30T05:13:07.678Z,2.80
2023-01-30T05:15:34.898Z,2.80
2023-01-30T05:18:02.152Z,2.70
2023-01-30T05:20:29.349Z,2.70
2023-01-30T05:22:56.682Z,2.70
2023-01-30T05:25:24.155Z,2.70
2023-01-30T05:27:51.362Z,2.60
2023-01-30T05:30:18.735Z,2.60
2023-01-30T05:32:45.967Z,2.60
2023-01-30T05:35:13.171Z,2.60
2023-01-30T05:37:40.354Z,2.60
2023-01-30T05:40:09.143Z,2.50
2023-01-30T05:42:36.394Z,2.50
2023-01-30T05:45:03.630Z,2.40
2023-01-30T05:47:30.942Z,2.40
2023-01-30T05:49:58.102Z,2.40
2023-01-30T05:52:25.260Z,2.30
2023-01-30T05:54:52.579Z,2.40
2023-01-30T05:57:19.871Z,2.30
2023-01-30T05:59:47.041Z,2.30
2023-01-30T06:02:14.295Z,2.40
2023-01-30T06:04:41.517Z,2.30
2023-01-30T06:07:08.841Z,2.20
2023-01-30T06:09:36.159Z,2.30
2023-01-30T06:12:03.328Z,2.20
2023-01-30T06:14:30.447Z,2.20
2023-01-30T06:16:57.767Z,2.20
2023-01-30T06:19:24.956Z,2.20
2023-01-30T06:21:52.336Z,2.20
2023-01-30T06:24:19.547Z,2.20
2023-01-30T06:26:46.819Z,2.30
2023-01-30T06:29:14.220Z,2.30
2023-01-30T06:31:41.512Z,2.30
2023-01-30T06:34:08.709Z,2.30
2023-01-30T06:36:35.919Z,2.20
2023-01-30T06:39:03.285Z,2.20
2023-01-30T06:41:30.827Z,2.20
2023-01-30T06:43:58.029Z,2.20
2023-01-30T06:46:25.502Z,2.20
2023-01-30T06:48:52.766Z,2.20
2023-01-30T06:51:20.088Z,2.20
2023-01-30T06:53:47.348Z,2.10
2023-01-30T06:56:14.687Z,2.20
2023-01-30T06:58:42.186Z,2.20
2023-01-30T07:01:09.435Z,2.10
2023-01-30T07:03:36.694Z,2.10
2023-01-30T07:06:04.249Z,2.10
2023-01-30T07:08:31.538Z,2.10
2023-01-30T07:10:58.731Z,2.10
2023-01-30T07:13:26.030Z,2.10
2023-01-30T07:15:53.444Z,2.00
2023-01-30T07:18:20.738Z,2.00
2023-01-30T07:20:51.371Z,2.10
2023-01-30T07:23:18.846Z,2.10
2023-01-30T07:25:46.330Z,2.20
2023-01-30T07:28:13.818Z,2.10
2023-01-30T07:30:41.497Z,2.10
2023-01-30T07:33:08.849Z,2.20
2023-01-30T07:35:37.623Z,2.10
2023-01-30T07:38:06.261Z,2.00
2023-01-30T07:40:33.881Z,2.00
2023-01-30T07:43:06.932Z,2.10
2023-01-30T07:45:45.264Z,2.10
2023-01-30T07:48:16.126Z,2.10
2023-01-30T07:50:43.803Z,2.20
2023-01-30T07:53:16.663Z,2.40
2023-01-30T07:55:44.508Z,2.50
2023-01-30T07:58:15.269Z,2.50
2023-01-30T08:00:44.037Z,2.50
2023-01-30T08:03:16.177Z,2.50
2023-01-30T08:05:45.629Z,2.50
2023-01-30T08:08:12.870Z,2.60
2023-01-30T08:10:40.063Z,2.60
2023-01-30T08:13:07.293Z,2.60
2023-01-30T08:15:34.432Z,2.60
2023-01-30T08:18:01.652Z,2.60
2023-01-30T08:20:29.672Z,2.60
2023-01-30T08:22:58.486Z,2.60
2023-01-30T08:25:26.235Z,2.60
2023-01-30T08:27:53.756Z,2.60
2023-01-30T08:30:21.872Z,2.50
2023-01-30T08:32:49.463Z,2.50
2023-01-30T08:35:17.679Z,2.50
2023-01-30T08:37:45.438Z,2.40
2023-01-30T08:40:13.374Z,2.40
2023-01-30T08:42:40.922Z,2.30
2023-01-30T08:45:08.698Z,2.30
2023-01-30T08:47:36.101Z,2.20
2023-01-30T08:50:04.652Z,2.20
2023-01-30T08:52:34.974Z,2.20
2023-01-30T08:55:02.796Z,2.10
2023-01-30T08:57:30.423Z,2.20
2023-01-30T08:59:57.699Z,2.20
2023-01-30T09:02:24.989Z,2.20
2023-01-30T09:04:52.821Z,2.20
2023-01-30T09:07:20.146Z,2.20
2023-01-30T09:09:48.732Z,2.20
2023-01-30T09:12:16.831Z,2.30
2023-01-30T09:14:43.992Z,2.30
2023-01-30T09:17:11.223Z,2.30
2023-01-30T09:19:38.783Z,2.30
2023-01-30T09:22:07.828Z,2.30
2023-01-30T09:24:35.036Z,2.40
2023-01-30T09:27:02.564Z,2.50
2023-01-30T09:29:30.079Z,2.40
2023-01-30T09:31:57.615Z,2.30
2023-01-30T09:34:27.820Z,2.40
2023-01-30T09:37:04.390Z,2.30
2023-01-30T09:39:32.031Z,2.40
2023-01-30T09:42:14.952Z,2.40
2023-01-30T09:45:00.620Z,2.50
2023-01-30T09:48:06.483Z,2.50
2023-01-30T09:50:44.201Z,2.50
2023-01-30T09:53:15.400Z,2.60
2023-01-30T09:55:43.154Z,2.60
2023-01-30T09:58:24.832Z,2.70
2023-01-30T10:00:57.056Z,3.10
2023-01-30T10:03:30.243Z,3.40
2023-01-30T10:06:02.626Z,3.40
2023-01-30T10:08:38.683Z,3.30
2023-01-30T10:11:27.077Z,3.20
2023-01-30T10:14:13.977Z,3.10
2023-01-30T10:17:13.332Z,3.10
2023-01-30T10:20:14.366Z,3.20
2023-01-30T10:23:04.838Z,3.10
2023-01-30T10:25:41.258Z,3.20
2023-01-30T10:28:34.989Z,3.20
2023-01-30T10:31:11.474Z,3.10
2023-01-30T10:33:50.410Z,3.10
2023-01-30T10:36:36.927Z,3.00
2023-01-30T10:39:21.682Z,3.00
2023-01-30T10:41:59.223Z,3.10
2023-01-30T10:44:26.671Z,3.10
2023-01-30T10:46:54.027Z,3.10
2023-01-30T10:49:38.695Z,3.10
2023-01-30T10:52:21.812Z,3.10
2023-01-30T10:54:56.104Z,3.00
2023-01-30T10:57:34.143Z,3.10
2023-01-30T11:00:10.129Z,3.10
2023-01-30T11:03:01.604Z,3.10
2023-01-30T11:05:39.871Z,3.10
2023-01-30T11:08:34.945Z,3.10
2023-01-30T11:11:20.258Z,3.10
2023-01-30T11:13:47.491Z,3.00
2023-01-30T11:16:15.795Z,3.00
2023-01-30T11:21:43.865Z,3.20
2023-01-30T11:24:30.167Z,3.20
2023-01-30T11:27:10.154Z,3.30
2023-01-30T11:29:40.104Z,3.40
2023-01-30T11:32:19.162Z,3.40
2023-01-30T11:35:03.992Z,3.40
2023-01-30T11:37:37.656Z,3.40
2023-01-30T11:40:18.120Z,3.50
2023-01-30T11:42:51.168Z,3.60
2023-01-30T11:45:19.707Z,3.60
2023-01-30T11:48:03.908Z,3.60
2023-01-30T11:50:49.481Z,3.60
2023-01-30T11:53:34.936Z,3.60
2023-01-30T11:56:28.085Z,3.60
2023-01-30T11:59:45.771Z,3.70
2023-01-30T12:02:21.845Z,3.60
2023-01-30T12:04:54.101Z,3.50
2023-01-30T12:07:23.384Z,3.60
2023-01-30T12:09:51.603Z,3.60
2023-01-30T12:12:36.229Z,3.70
2023-01-30T12:15:18.345Z,3.70
2023-01-30T12:18:22.388Z,3.60
2023-01-30T12:21:09.863Z,3.50
2023-01-30T12:24:05.441Z,3.50
2023-01-30T12:26:44.895Z,3.60
2023-01-30T12:29:37.361Z,3.60
2023-01-30T12:32:19.743Z,3.70
2023-01-30T12:34:48.495Z,3.70
2023-01-30T12:37:36.832Z,3.80
2023-01-30T12:40:10.047Z,3.80
2023-01-30T12:42:52.629Z,3.80
2023-01-30T12:45:29.592Z,3.80
2023-01-30T12:48:08.798Z,3.80
2023-01-30T12:50:59.363Z,3.80
2023-01-30T12:53:52.893Z,3.60
2023-01-30T12:56:32.263Z,3.80
2023-01-30T12:59:02.504Z,3.80
2023-01-30T13:01:43.436Z,3.80
2023-01-30T13:04:30.047Z,3.80
2023-01-30T13:07:18.902Z,3.80
2023-01-30T13:10:16.753Z,3.80
2023-01-30T13:13:11.945Z,3.80
2023-01-30T13:15:53.766Z,3.80
2023-01-30T13:18:43.492Z,3.90
2023-01-30T13:21:18.217Z,3.90
2023-01-30T13:24:18.692Z,3.90
2023-01-30T13:26:48.569Z,3.90
2023-01-30T13:29:28.199Z,3.90
2023-01-30T13:31:59.604Z,3.90
2023-01-30T13:34:44.880Z,3.90
2023-01-30T13:37:18.084Z,4.00
2023-01-30T13:39:53.073Z,3.90
2023-01-30T13:42:20.589Z,3.90
2023-01-30T13:44:50.261Z,3.90
2023-01-30T13:47:31.397Z,3.80
2023-01-30T13:50:23.179Z,3.80
2023-01-30T13:53:07.827Z,3.80
2023-01-30T13:56:40.343Z,3.80
2023-01-30T13:59:23.246Z,3.80
2023-01-30T14:02:09.610Z,3.80
2023-01-30T14:04:40.204Z,3.80
2023-01-30T14:07:25.718Z,3.80
2023-01-30T14:10:20.830Z,3.70
2023-01-30T14:12:52.686Z,3.80
2023-01-30T14:15:27.470Z,3.80
2023-01-30T14:18:14.785Z,3.70
2023-01-30T14:20:50.133Z,3.80
2023-01-30T14:23:20.265Z,3.80
2023-01-30T14:25:58.119Z,3.80
2023-01-30T14:28:25.377Z,3.70
2023-01-30T14:31:00.962Z,3.60
2023-01-30T14:33:32.114Z,3.70
2023-01-30T14:36:02.216Z,3.70
2023-01-30T14:38:34.436Z,3.70
2023-01-30T14:41:01.755Z,3.70
2023-01-30T14:43:44.214Z,3.60
2023-01-30T14:46:20.783Z,3.60
2023-01-30T14:48:50.921Z,3.60
2023-01-30T14:51:32.090Z,3.70
2023-01-30T14:54:04.067Z,3.70
2023-01-30T14:56:39.040Z,3.60
2023-01-30T14:59:23.980Z,3.70
2023-01-30T15:02:10.044Z,3.70
2023-01-30T15:04:49.294Z,3.70
2023-01-30T15:07:54.087Z,3.80
2023-01-30T15:10:32.449Z,3.80
2023-01-30T15:13:05.458Z,3.80
2023-01-30T15:15:50.523Z,3.70
2023-01-30T15:18:44.982Z,3.70
2023-01-30T15:21:47.188Z,3.70
2023-01-30T15:24:38.612Z,3.50
2023-01-30T15:27:15.084Z,3.50
2023-01-30T15:30:05.965Z,3.40
2023-01-30T15:32:34.505Z,3.40
2023-01-30T15:35:24.816Z,3.30
2023-01-30T15:37:57.427Z,3.20
2023-01-30T15:40:29.974Z,3.30
2023-01-30T15:43:13.907Z,3.20
2023-01-30T15:45:48.318Z,3.10
2023-01-30T15:48:21.861Z,3.10
2023-01-30T15:50:51.499Z,3.00
2023-01-30T15:53:22.676Z,2.90
2023-01-30T15:55:51.224Z,2.90
2023-01-30T15:58:20.999Z,2.80
2023-01-30T16:00:51.297Z,2.80
2023-01-30T16:03:23.243Z,2.80
2023-01-30T16:05:52.796Z,2.70
2023-01-30T16:08:26.154Z,2.70
2023-01-30T16:10:53.549Z,2.70
2023-01-30T16:13:23.923Z,2.70
2023-01-30T16:16:12.822Z,2.70
2023-01-30T16:18:59.328Z,2.60
2023-01-30T16:21:35.085Z,2.60
2023-01-30T16:24:25.052Z,2.60
2023-01-30T16:26:57.008Z,2.40
2023-01-30T16:29:27.535Z,2.40
2023-01-30T16:31:58.803Z,2.40
2023-01-30T16:34:43.700Z,2.40
2023-01-30T16:37:19.464Z,2.40
2023-01-30T16:40:02.840Z,2.30
2023-01-30T16:42:31.346Z,2.40
2023-01-30T16:45:30.174Z,2.40
2023-01-30T16:48:17.398Z,2.40
2023-01-30T16:51:05.752Z,2.40
2023-01-30T16:53:34.113Z,2.40
2023-01-30T16:56:02.859Z,2.40
2023-01-30T16:58:35.236Z,2.40
2023-01-30T17:01:05.355Z,2.40
2023-01-30T17:03:42.085Z,2.40
2023-01-30T17:06:20.416Z,2.30
2023-01-30T17:08:57.344Z,2.30
2023-01-30T17:11:44.800Z,2.40
2023-01-30T17:14:15.468Z,2.40
2023-01-30T17:16:43.471Z,2.40
2023-01-30T17:19:10.918Z,2.50
2023-01-30T17:21:51.875Z,2.50
2023-01-30T17:24:24.043Z,2.50
2023-01-30T17:26:59.863Z,2.60
2023-01-30T17:29:42.099Z,2.60
2023-01-30T17:32:13.439Z,2.70
2023-01-30T17:34:41.552Z,2.70
2023-01-30T17:37:27.218Z,2.70
2023-01-30T17:39:54.592Z,2.70
2023-01-30T17:42:23.055Z,2.70
2023-01-30T17:44:50.711Z,2.70
2023-01-30T17:47:18.054Z,2.70
2023-01-30T17:49:45.349Z,2.60
2023-01-30T17:52:14.396Z,2.60
2023-01-30T17:54:41.894Z,2.60
2023-01-30T17:57:13.160Z,2.70
2023-01-30T17:59:40.515Z,2.70
2023-01-30T18:02:10.305Z,2.70
2023-01-30T18:04:40.991Z,2.80
2023-01-30T18:07:15.555Z,2.70
2023-01-30T18:09:43.788Z,2.80
2023-01-30T18:12:11.267Z,2.80
2023-01-30T18:14:38.614Z,2.70
2023-01-30T18:17:05.974Z,2.80
2023-01-30T18:19:33.538Z,2.80
2023-01-30T18:22:02.062Z,2.80
2023-01-30T18:24:31.308Z,2.80
2023-01-30T18:27:01.892Z,2.70
2023-01-30T18:29:29.328Z,2.80
2023-01-30T18:32:05.227Z,2.80
2023-01-30T18:34:33.356Z,2.80
2023-01-30T18:37:00.570Z,2.70
2023-01-30T18:39:27.908Z,2.60
2023-01-30T18:41:55.225Z,2.70
2023-01-30T18:44:22.844Z,2.80
2023-01-30T18:46:50.820Z,2.70
2023-01-30T18:49:18.567Z,2.70
2023-01-30T18:51:45.801Z,2.70
2023-01-30T18:54:13.480Z,2.70
2023-01-30T18:56:40.756Z,2.70
2023-01-30T18:59:10.028Z,2.60
2023-01-30T19:01:40.178Z,2.50
2023-01-30T19:04:10.705Z,2.50
2023-01-30T19:06:41.485Z,2.60
2023-01-30T19:09:14.133Z,2.50
2023-01-30T19:12:00.258Z,2.40
2023-01-30T19:14:27.781Z,2.40
2023-01-30T19:16:55.325Z,2.40
2023-01-30T19:19:22.967Z,2.40
2023-01-30T19:21:54.935Z,2.40
2023-01-30T19:24:25.929Z,2.40
2023-01-30T19:26:53.712Z,2.40
2023-01-30T19:29:21.723Z,2.40
2023-01-30T19:31:49.887Z,2.40
2023-01-30T19:34:17.367Z,2.30
2023-01-30T19:36:47.826Z,2.40
2023-01-30T19:39:15.398Z,2.40
2023-01-30T19:41:42.749Z,2.40
2023-01-30T19:44:14.840Z,2.40
2023-01-30T19:46:44.546Z,2.40
2023-01-30T19:49:12.852Z,2.40
2023-01-30T19:51:41.000Z,2.40
2023-01-30T19:54:11.235Z,2.40
2023-01-30T19:56:42.100Z,2.40
2023-01-30T19:59:14.483Z,2.30
2023-01-30T20:01:45.404Z,2.40
2023-01-30T20:04:13.058Z,2.30
2023-01-30T20:06:46.329Z,2.30
2023-01-30T20:09:17.650Z,2.30
2023-01-30T20:11:45.506Z,2.30
2023-01-30T20:14:19.273Z,2.30
2023-01-30T20:19:33.969Z,2.30
2023-01-30T20:22:08.356Z,2.30
2023-01-30T20:24:36.772Z,2.30
2023-01-30T20:27:04.300Z,2.30
2023-01-30T20:29:31.894Z,2.20
2023-01-30T20:31:59.467Z,2.20
2023-01-30T20:34:27.207Z,2.20
2023-01-30T20:36:54.607Z,2.20
2023-01-30T20:39:29.746Z,2.20
2023-01-30T20:42:00.293Z,2.20
2023-01-30T20:44:33.208Z,2.20
2023-01-30T20:47:00.701Z,2.10
2023-01-30T20:49:28.485Z,2.20
2023-01-30T20:51:56.713Z,2.10
2023-01-30T20:54:24.743Z,2.10
2023-01-30T20:56:57.212Z,2.10
2023-01-30T20:59:27.494Z,2.10
2023-01-30T21:01:56.735Z,2.10
2023-01-30T21:04:24.916Z,2.10
2023-01-30T21:06:52.464Z,2.10
2023-01-30T21:09:22.118Z,2.00
2023-01-30T21:11:52.832Z,2.00
2023-01-30T21:14:20.779Z,2.10
2023-01-30T21:16:48.974Z,2.20
2023-01-30T21:19:18.126Z,2.20
2023-01-30T21:21:55.053Z,2.30
2023-01-30T21:24:25.741Z,2.30
2023-01-30T21:26:53.667Z,2.30
2023-01-30T21:29:24.212Z,2.30
2023-01-30T21:31:52.701Z,2.30
2023-01-30T21:34:20.361Z,2.30
2023-01-30T21:37:06.384Z,2.30
2023-01-30T21:39:53.252Z,2.30
2023-01-30T21:42:40.258Z,2.20
2023-01-30T21:45:10.611Z,2.10
2023-01-30T21:47:37.958Z,2.10
2023-01-30T21:50:06.336Z,2.20
2023-01-30T21:52:33.641Z,2.20
2023-01-30T21:55:01.156Z,2.10
2023-01-30T21:57:28.860Z,2.10
2023-01-30T21:59:56.513Z,2.00
2023-01-30T22:02:24.147Z,2.00
2023-01-30T22:04:51.516Z,2.00
2023-01-30T22:07:18.822Z,2.10
2023-01-30T22:09:46.106Z,2.00
2023-01-30T22:12:13.352Z,2.00
2023-01-30T22:14:40.892Z,2.00
2023-01-30T22:17:08.270Z,2.00
2023-01-30T22:19:35.936Z,1.90
2023-01-30T22:22:04.075Z,1.90
2023-01-30T22:24:31.381Z,1.80
2023-01-30T22:26:58.975Z,1.90
2023-01-30T22:29:26.407Z,1.90
2023-01-30T22:31:53.878Z,1.90
2023-01-30T22:34:21.867Z,1.90
2023-01-30T22:36:51.963Z,2.00
2023-01-30T22:39:19.980Z,1.90
2023-01-30T22:41:47.369Z,1.90
2023-01-30T22:44:14.764Z,1.80
2023-01-30T22:46:42.235Z,1.70
2023-01-30T22:49:10.483Z,1.70
2023-01-30T22:51:40.851Z,1.70
2023-01-30T22:54:12.132Z,1.60
2023-01-30T22:56:41.780Z,1.60
2023-01-30T22:59:09.801Z,1.40
2023-01-30T23:01:39.378Z,1.20
2023-01-30T23:04:26.998Z,1.20
2023-01-30T23:06:54.653Z,1.10
2023-01-30T23:09:23.934Z,1.00
2023-01-30T23:12:13.250Z,1.00
2023-01-30T23:14:42.467Z,1.00
2023-01-30T23:17:29.202Z,1.00
2023-01-30T23:19:56.780Z,0.90
2023-01-30T23:22:24.559Z,0.90
2023-01-30T23:24:51.898Z,0.90
2023-01-30T23:27:20.195Z,0.90
2023-01-30T23:29:47.522Z,0.90
2023-01-30T23:32:15.279Z,0.80
2023-01-30T23:34:43.281Z,0.80
2023-01-30T23:37:10.731Z,0.70
2023-01-30T23:39:38.075Z,0.60
2023-01-30T23:42:05.458Z,0.60
2023-01-30T23:44:32.681Z,0.60
2023-01-30T23:46:59.969Z,0.60
2023-01-30T23:49:27.321Z,0.50
2023-01-30T23:51:54.545Z,0.60
2023-01-30T23:54:21.896Z,0.50
2023-01-30T23:56:49.166Z,0.60
2023-01-30T23:59:16.490Z,0.50
